Time;durP1;ratioP1;P1;durP2;ratioP2;P2;SDS_P1;SDS_P2;PMS_P1;PMS_P2;Temp;Humidity;BMP_temperature;BMP_pressure;BME280_temperature;BME280_humidity;BME280_pressure;Samples;Min_cycle;Max_cycle;Signal;HPM_P1;HPM_P2
2022/12/12 00:01:51;0.00;0.00;0.62;0.00;0.00;0.62;8.07;6.80;;;20.40;23.60;;;;;;2264208;61;20811;-63
2022/12/12 00:04:36;0.00;0.00;0.62;0.00;0.00;0.62;7.43;6.77;;;20.40;23.60;;;;;;2263107;61;20363;-63
2022/12/12 00:07:21;0.00;0.00;0.62;0.00;0.00;0.62;6.10;5.37;;;20.40;23.70;;;;;;2264106;61;20961;-62
2022/12/12 00:10:07;0.00;0.00;0.62;0.00;0.00;0.62;7.73;6.40;;;20.40;23.70;;;;;;2264721;61;20654;-63
2022/12/12 00:12:53;0.00;0.00;0.62;0.00;0.00;0.62;6.10;5.60;;;20.40;23.70;;;;;;2264592;61;20436;-63
2022/12/12 00:15:38;0.00;0.00;0.62;0.00;0.00;0.62;6.10;5.50;;;20.40;23.70;;;;;;2264963;61;20898;-63
2022/12/12 00:18:23;0.00;0.00;0.62;0.00;0.00;0.62;7.33;6.33;;;20.40;23.70;;;;;;2260588;61;20442;-62
2022/12/12 00:21:13;0.00;0.00;0.62;0.00;0.00;0.62;6.27;5.67;;;20.40;23.70;;;;;;2264647;61;20367;-63
2022/12/12 00:23:58;0.00;0.00;0.62;0.00;0.00;0.62;5.67;5.03;;;20.40;23.70;;;;;;2264686;61;20395;-63
2022/12/12 00:26:42;0.00;0.00;0.62;0.00;0.00;0.62;6.87;5.80;;;20.40;23.70;;;;;;2263642;61;20410;-64
2022/12/12 00:29:28;0.00;0.00;0.62;0.00;0.00;0.62;6.07;5.47;;;20.30;23.60;;;;;;2261639;61;20395;-63
2022/12/12 00:32:13;0.00;0.00;0.62;0.00;0.00;0.62;6.67;6.00;;;20.40;23.70;;;;;;2264787;61;20372;-63
2022/12/12 00:34:57;0.00;0.00;0.62;0.00;0.00;0.62;6.57;5.67;;;20.30;23.60;;;;;;2264576;61;20360;-63
2022/12/12 00:37:42;0.00;0.00;0.62;0.00;0.00;0.62;6.03;5.17;;;20.30;23.70;;;;;;2264631;61;20434;-63
2022/12/12 00:40:26;0.00;0.00;0.62;0.00;0.00;0.62;6.60;6.00;;;20.30;23.70;;;;;;2263638;61;20361;-61
2022/12/12 00:43:11;0.00;0.00;0.62;0.00;0.00;0.62;6.10;5.50;;;20.30;23.70;;;;;;2264938;61;20958;-62
2022/12/12 00:45:59;0.00;0.00;0.62;0.00;0.00;0.62;7.07;6.23;;;20.30;23.70;;;;;;2264700;61;20407;-61
2022/12/12 00:48:44;0.00;0.00;0.62;0.00;0.00;0.62;5.20;4.70;;;20.30;23.70;;;;;;2263544;61;20389;-67
2022/12/12 00:51:30;0.00;0.00;0.62;0.00;0.00;0.62;6.40;5.80;;;20.30;23.70;;;;;;2264906;61;20884;-68
2022/12/12 00:54:14;0.00;0.00;0.62;0.00;0.00;0.62;7.13;6.53;;;20.30;23.90;;;;;;2264748;61;20364;-69
2022/12/12 00:56:59;0.00;0.00;0.62;0.00;0.00;0.62;8.27;7.47;;;20.30;23.80;;;;;;2263797;61;20923;-67
2022/12/12 00:59:43;0.00;0.00;0.62;0.00;0.00;0.62;9.60;8.17;;;20.30;23.60;;;;;;2264736;61;20415;-67
2022/12/12 01:02:29;0.00;0.00;0.62;0.00;0.00;0.62;8.93;8.03;;;20.30;23.50;;;;;;2263428;61;20372;-68
2022/12/12 01:05:17;0.00;0.00;0.62;0.00;0.00;0.62;8.43;7.60;;;20.30;23.40;;;;;;2264922;61;20371;-68
2022/12/12 01:08:01;0.00;0.00;0.62;0.00;0.00;0.62;8.57;7.43;;;20.30;23.30;;;;;;2264745;61;20380;-68
2022/12/12 01:10:46;0.00;0.00;0.62;0.00;0.00;0.62;10.27;8.83;;;20.30;23.20;;;;;;2263509;61;20468;-68
2022/12/12 01:13:30;0.00;0.00;0.62;0.00;0.00;0.62;8.40;7.60;;;20.30;23.30;;;;;;2264539;61;20418;-67
2022/12/12 01:16:15;0.00;0.00;0.62;0.00;0.00;0.62;10.13;9.13;;;20.30;23.40;;;;;;2264728;61;20391;-70
2022/12/12 01:19:02;0.00;0.00;0.62;0.00;0.00;0.62;10.73;9.70;;;20.30;23.20;;;;;;2263920;61;20438;-69
2022/12/12 01:21:46;0.00;0.00;0.62;0.00;0.00;0.62;12.67;11.30;;;20.30;23.30;;;;;;2264496;61;20376;-69
2022/12/12 01:24:31;0.00;0.00;0.62;0.00;0.00;0.62;12.00;10.80;;;20.20;23.10;;;;;;2263188;61;20359;-70
2022/12/12 01:27:15;0.00;0.00;0.62;0.00;0.00;0.62;11.90;10.63;;;20.20;23.00;;;;;;2264614;61;20380;-68
2022/12/12 01:30:01;0.00;0.00;0.62;0.00;0.00;0.62;12.40;11.20;;;20.30;23.10;;;;;;2264620;61;20348;-69
2022/12/12 01:32:46;0.00;0.00;0.62;0.00;0.00;0.62;13.80;12.40;;;20.20;22.90;;;;;;2263366;61;20786;-69
2022/12/12 01:35:33;0.00;0.00;0.62;0.00;0.00;0.62;13.40;12.20;;;20.20;22.90;;;;;;2264501;61;20467;-69
2022/12/12 01:38:18;0.00;0.00;0.62;0.00;0.00;0.62;15.13;13.60;;;20.10;22.80;;;;;;2264602;61;20849;-70
2022/12/12 01:41:02;0.00;0.00;0.62;0.00;0.00;0.62;14.67;13.20;;;20.10;22.70;;;;;;2263562;61;20848;-69
2022/12/12 01:43:48;0.00;0.00;0.62;0.00;0.00;0.62;14.27;12.83;;;20.10;22.60;;;;;;2264725;61;20458;-69
2022/12/12 01:46:41;0.00;0.00;0.62;0.00;0.00;0.62;15.43;13.77;;;20.10;22.60;;;;;;2263011;61;20368;-68
2022/12/12 01:49:27;0.00;0.00;0.62;0.00;0.00;0.62;15.87;14.27;;;20.10;22.50;;;;;;2264489;61;20815;-68
2022/12/12 01:52:18;0.00;0.00;0.62;0.00;0.00;0.62;16.47;14.77;;;20.00;22.40;;;;;;2264477;61;20360;-69
2022/12/12 01:55:06;0.00;0.00;0.62;0.00;0.00;0.62;16.17;14.50;;;20.00;22.40;;;;;;2263445;61;21070;-68
2022/12/12 01:57:53;0.00;0.00;0.62;0.00;0.00;0.62;15.80;14.10;;;20.00;22.40;;;;;;2264463;61;20497;-69
2022/12/12 02:00:38;0.00;0.00;0.62;0.00;0.00;0.62;15.67;13.97;;;20.00;22.80;;;;;;2264558;61;20356;-68
2022/12/12 02:03:24;0.00;0.00;0.62;0.00;0.00;0.62;15.50;13.90;;;20.00;22.30;;;;;;2263471;61;20367;-68
2022/12/12 02:06:14;0.00;0.00;0.62;0.00;0.00;0.62;16.30;14.60;;;19.90;22.10;;;;;;2264668;61;20757;-66
2022/12/12 02:09:07;0.00;0.00;0.62;0.00;0.00;0.62;16.60;14.83;;;19.90;22.10;;;;;;2260135;61;20388;-69
2022/12/12 02:11:55;0.00;0.00;0.62;0.00;0.00;0.62;17.07;15.27;;;19.90;22.10;;;;;;2261320;61;20365;-68
2022/12/12 02:14:45;0.00;0.00;0.62;0.00;0.00;0.62;16.23;13.63;;;19.90;22.10;;;;;;2264506;61;20761;-67
2022/12/12 02:18:00;0.00;0.00;0.62;0.00;0.00;0.62;15.30;13.60;;;19.80;21.90;;;;;;2259645;61;20442;-68
2022/12/12 02:21:02;0.00;0.00;0.62;0.00;0.00;0.62;16.47;14.80;;;19.80;21.90;;;;;;2264548;61;20356;-69
2022/12/12 02:24:32;0.00;0.00;0.62;0.00;0.00;0.62;16.03;14.33;;;19.80;21.90;;;;;;2263187;61;20384;-70
2022/12/12 02:28:00;0.00;0.00;0.62;0.00;0.00;0.62;15.23;13.60;;;19.70;22.40;;;;;;2264524;61;20429;-70
2022/12/12 02:31:01;0.00;0.00;0.62;0.00;0.00;0.62;14.40;13.00;;;19.70;21.90;;;;;;2264211;61;20364;-69
2022/12/12 02:33:54;0.00;0.00;0.62;0.00;0.00;0.62;15.07;13.57;;;19.70;21.90;;;;;;2264268;61;20914;-68
2022/12/12 02:36:50;0.00;0.00;0.62;0.00;0.00;0.62;14.63;13.17;;;19.60;21.80;;;;;;2264349;61;20360;-68
2022/12/12 02:39:46;0.00;0.00;0.62;0.00;0.00;0.62;15.03;13.17;;;19.60;21.80;;;;;;2263241;61;20407;-70
2022/12/12 02:42:42;0.00;0.00;0.62;0.00;0.00;0.62;15.40;13.37;;;19.60;21.80;;;;;;2264443;61;20817;-69
2022/12/12 02:45:36;0.00;0.00;0.62;0.00;0.00;0.62;13.97;12.57;;;19.50;21.70;;;;;;2264531;61;20380;-68
2022/12/12 02:48:29;0.00;0.00;0.62;0.00;0.00;0.62;16.80;13.37;;;19.50;21.70;;;;;;2264615;61;20392;-70
2022/12/12 02:51:16;0.00;0.00;0.62;0.00;0.00;0.62;15.07;13.57;;;19.50;21.70;;;;;;2264212;61;20396;-68
2022/12/12 02:54:04;0.00;0.00;0.62;0.00;0.00;0.62;14.50;13.00;;;19.50;21.70;;;;;;2263314;61;20423;-67
2022/12/12 02:56:53;0.00;0.00;0.62;0.00;0.00;0.62;15.67;12.63;;;19.50;21.70;;;;;;2264225;61;20778;-69
2022/12/12 02:59:43;0.00;0.00;0.62;0.00;0.00;0.62;19.33;13.70;;;19.50;21.70;;;;;;2264326;61;20391;-70
2022/12/12 03:10:08;0.00;0.00;0.62;0.00;0.00;0.62;14.80;11.70;;;19.40;21.60;;;;;;2256485;61;20376;-68
2022/12/12 03:13:00;0.00;0.00;0.62;0.00;0.00;0.62;12.90;11.53;;;19.30;21.50;;;;;;2261032;61;20376;-70
2022/12/12 03:15:55;0.00;0.00;0.62;0.00;0.00;0.62;13.63;12.33;;;19.30;21.60;;;;;;2263047;61;20822;-72
2022/12/12 03:18:52;0.00;0.00;0.62;0.00;0.00;0.62;12.70;11.40;;;19.30;21.50;;;;;;2264514;61;20392;-70
2022/12/12 03:21:45;0.00;0.00;0.62;0.00;0.00;0.62;15.90;12.93;;;19.30;21.50;;;;;;2261397;61;20383;-71
2022/12/12 03:24:34;0.00;0.00;0.62;0.00;0.00;0.62;17.17;13.03;;;19.20;21.40;;;;;;2263356;61;20392;-68
2022/12/12 03:27:25;0.00;0.00;0.62;0.00;0.00;0.62;14.40;12.33;;;19.20;21.50;;;;;;2263713;61;20384;-68
2022/12/12 03:30:14;0.00;0.00;0.62;0.00;0.00;0.62;14.13;12.77;;;19.20;21.40;;;;;;2263454;61;20429;-67
2022/12/12 03:33:03;0.00;0.00;0.62;0.00;0.00;0.62;13.13;11.13;;;19.10;21.90;;;;;;2263696;61;20368;-70
2022/12/12 03:35:55;0.00;0.00;0.62;0.00;0.00;0.62;14.10;11.10;;;19.10;21.40;;;;;;2264315;61;20364;-67
2022/12/12 03:38:48;0.00;0.00;0.62;0.00;0.00;0.62;12.17;10.83;;;19.10;21.40;;;;;;2263108;61;20476;-67
2022/12/12 03:41:39;0.00;0.00;0.62;0.00;0.00;0.62;12.90;11.63;;;19.10;21.40;;;;;;2264227;61;20363;-70
2022/12/12 03:44:31;0.00;0.00;0.62;0.00;0.00;0.62;12.43;11.13;;;19.00;21.40;;;;;;2265144;61;20356;-69
2022/12/12 03:47:23;0.00;0.00;0.62;0.00;0.00;0.62;12.50;11.17;;;19.00;21.40;;;;;;2264120;61;20949;-68
2022/12/12 03:50:15;0.00;0.00;0.62;0.00;0.00;0.62;12.57;11.23;;;19.00;21.40;;;;;;2265116;61;20757;-70
2022/12/12 03:53:08;0.00;0.00;0.62;0.00;0.00;0.62;13.33;10.30;;;19.00;21.40;;;;;;2260461;61;20761;-68
2022/12/12 03:56:00;0.00;0.00;0.62;0.00;0.00;0.62;14.43;12.10;;;18.90;21.30;;;;;;2264758;61;20356;-68
2022/12/12 03:58:50;0.00;0.00;0.62;0.00;0.00;0.62;13.17;10.60;;;18.90;21.30;;;;;;2264618;61;20392;-67
2022/12/12 04:01:45;0.00;0.00;0.62;0.00;0.00;0.62;13.20;11.83;;;18.90;21.30;;;;;;2263664;61;20410;-70
2022/12/12 04:04:37;0.00;0.00;0.62;0.00;0.00;0.62;11.37;10.20;;;18.90;21.30;;;;;;2265182;61;20757;-70
2022/12/12 04:07:28;0.00;0.00;0.62;0.00;0.00;0.62;12.90;10.27;;;18.90;21.30;;;;;;2263592;61;20938;-69
2022/12/12 04:13:27;0.00;0.00;0.62;0.00;0.00;0.62;12.33;10.97;;;18.80;21.70;;;;;;2264725;61;20906;-70
2022/12/12 04:16:15;0.00;0.00;0.62;0.00;0.00;0.62;11.93;10.60;;;18.80;21.20;;;;;;2263420;61;20823;-69
2022/12/12 04:19:07;0.00;0.00;0.62;0.00;0.00;0.62;11.37;10.07;;;18.80;21.20;;;;;;2264976;61;20388;-69
2022/12/12 04:25:02;0.00;0.00;0.62;0.00;0.00;0.62;11.50;10.30;;;18.70;21.20;;;;;;2264960;61;20746;-70
2022/12/12 04:27:51;0.00;0.00;0.62;0.00;0.00;0.62;13.53;10.50;;;18.70;21.70;;;;;;2264565;61;20898;-70
2022/12/12 04:30:38;0.00;0.00;0.62;0.00;0.00;0.62;11.03;9.93;;;18.70;21.20;;;;;;2263524;61;20749;-69
2022/12/12 04:33:26;0.00;0.00;0.62;0.00;0.00;0.62;11.87;9.20;;;18.70;21.20;;;;;;2264847;61;20391;-68
2022/12/12 04:36:15;0.00;0.00;0.62;0.00;0.00;0.62;12.17;10.50;;;18.60;21.10;;;;;;2264774;61;20355;-70
2022/12/12 04:39:01;0.00;0.00;0.62;0.00;0.00;0.62;9.90;8.80;;;18.60;21.10;;;;;;2264052;61;20469;-70
2022/12/12 04:41:49;0.00;0.00;0.62;0.00;0.00;0.62;12.70;9.80;;;18.70;21.20;;;;;;2261841;61;20352;-69
2022/12/12 04:44:38;0.00;0.00;0.62;0.00;0.00;0.62;10.40;9.40;;;18.60;21.10;;;;;;2260405;61;20418;-67
2022/12/12 04:47:28;0.00;0.00;0.62;0.00;0.00;0.62;10.40;9.27;;;18.60;21.10;;;;;;2264739;61;20395;-69
2022/12/12 04:50:14;0.00;0.00;0.62;0.00;0.00;0.62;10.63;9.53;;;18.50;21.00;;;;;;2264776;61;20419;-68
2022/12/12 04:53:03;0.00;0.00;0.62;0.00;0.00;0.62;11.17;9.67;;;18.50;21.00;;;;;;2263459;61;20367;-69
2022/12/12 04:55:52;0.00;0.00;0.62;0.00;0.00;0.62;12.87;10.43;;;18.50;21.50;;;;;;2264536;61;20359;-68
2022/12/12 04:58:38;0.00;0.00;0.62;0.00;0.00;0.62;13.03;10.07;;;18.50;21.00;;;;;;2264428;61;20422;-69
2022/12/12 05:01:41;0.00;0.00;0.62;0.00;0.00;0.62;10.37;9.27;;;18.50;21.00;;;;;;2264556;61;20364;-68
2022/12/12 05:04:46;0.00;0.00;0.62;0.00;0.00;0.62;10.70;9.20;;;18.50;21.00;;;;;;2264904;61;20363;-68
2022/12/12 05:07:35;0.00;0.00;0.62;0.00;0.00;0.62;11.17;9.67;;;18.50;21.00;;;;;;2263490;61;20427;-68
2022/12/12 05:10:20;0.00;0.00;0.62;0.00;0.00;0.62;10.60;9.50;;;18.40;21.00;;;;;;2264566;61;20392;-69
2022/12/12 05:13:05;0.00;0.00;0.62;0.00;0.00;0.62;10.87;9.30;;;18.40;21.40;;;;;;2264297;61;20375;-68
2022/12/12 05:15:54;0.00;0.00;0.62;0.00;0.00;0.62;11.63;10.10;;;18.40;20.90;;;;;;2263675;61;20922;-69
2022/12/12 05:18:39;0.00;0.00;0.62;0.00;0.00;0.62;11.57;10.00;;;18.30;20.80;;;;;;2264783;61;20898;-68
2022/12/12 05:21:25;0.00;0.00;0.62;0.00;0.00;0.62;11.07;9.00;;;18.30;20.90;;;;;;2263339;61;20416;-68
2022/12/12 05:24:09;0.00;0.00;0.62;0.00;0.00;0.62;12.00;10.70;;;18.30;20.90;;;;;;2264490;61;20373;-67
2022/12/12 05:26:54;0.00;0.00;0.62;0.00;0.00;0.62;11.47;10.00;;;18.30;20.90;;;;;;2264628;61;20379;-68
2022/12/12 05:29:38;0.00;0.00;0.62;0.00;0.00;0.62;11.20;9.97;;;18.30;20.80;;;;;;2263382;61;20360;-67
2022/12/12 05:32:23;0.00;0.00;0.62;0.00;0.00;0.62;10.20;8.83;;;18.30;20.90;;;;;;2264702;61;20775;-70
2022/12/12 05:35:09;0.00;0.00;0.62;0.00;0.00;0.62;11.43;9.20;;;18.20;21.30;;;;;;2264734;61;20419;-67
2022/12/12 05:37:55;0.00;0.00;0.62;0.00;0.00;0.62;10.10;8.70;;;18.20;20.80;;;;;;2263471;61;20384;-68
2022/12/12 05:40:40;0.00;0.00;0.62;0.00;0.00;0.62;13.27;10.40;;;18.20;20.80;;;;;;2264613;61;20387;-69
2022/12/12 05:43:25;0.00;0.00;0.62;0.00;0.00;0.62;11.30;9.77;;;18.20;20.90;;;;;;2263462;61;20457;-67
2022/12/12 05:46:10;0.00;0.00;0.62;0.00;0.00;0.62;10.63;9.43;;;18.20;20.90;;;;;;2264616;61;20403;-67
2022/12/12 05:48:54;0.00;0.00;0.62;0.00;0.00;0.62;10.97;9.10;;;18.20;21.40;;;;;;2264376;61;20839;-68
2022/12/12 05:51:40;0.00;0.00;0.62;0.00;0.00;0.62;10.23;9.17;;;18.20;21.00;;;;;;2263405;61;20756;-66
2022/12/12 05:54:26;0.00;0.00;0.62;0.00;0.00;0.62;8.97;8.00;;;18.20;21.00;;;;;;2264410;61;20360;-67
2022/12/12 05:57:11;0.00;0.00;0.62;0.00;0.00;0.62;10.87;8.40;;;18.20;21.60;;;;;;2264614;61;20415;-66
2022/12/12 05:59:56;0.00;0.00;0.62;0.00;0.00;0.62;9.37;7.97;;;18.20;21.10;;;;;;2263566;61;20403;-68
2022/12/12 06:02:40;0.00;0.00;0.62;0.00;0.00;0.62;10.07;8.60;;;18.20;21.10;;;;;;2264453;61;20364;-69
2022/12/12 06:05:25;0.00;0.00;0.62;0.00;0.00;0.62;8.63;7.47;;;18.10;21.10;;;;;;2264222;61;20419;-68
2022/12/12 06:08:10;0.00;0.00;0.62;0.00;0.00;0.62;7.50;6.73;;;18.10;21.20;;;;;;2264531;61;20427;-68
2022/12/12 06:10:56;0.00;0.00;0.62;0.00;0.00;0.62;7.50;6.60;;;18.10;21.20;;;;;;2264331;61;20379;-69
2022/12/12 06:13:40;0.00;0.00;0.62;0.00;0.00;0.62;7.87;7.07;;;18.10;21.20;;;;;;2263048;61;20376;-69
2022/12/12 06:16:25;0.00;0.00;0.62;0.00;0.00;0.62;7.53;6.60;;;18.10;21.30;;;;;;2264223;61;20355;-69
2022/12/12 06:19:10;0.00;0.00;0.62;0.00;0.00;0.62;9.17;7.10;;;18.10;21.30;;;;;;2264557;61;20387;-68
2022/12/12 06:21:54;0.00;0.00;0.62;0.00;0.00;0.62;7.73;6.73;;;18.10;21.30;;;;;;2262932;61;20391;-69
2022/12/12 06:24:39;0.00;0.00;0.62;0.00;0.00;0.62;6.77;6.03;;;18.10;21.40;;;;;;2264521;61;20356;-67
2022/12/12 06:27:25;0.00;0.00;0.62;0.00;0.00;0.62;7.20;6.50;;;18.10;21.40;;;;;;2264457;61;20399;-69
2022/12/12 06:30:10;0.00;0.00;0.62;0.00;0.00;0.62;7.30;5.83;;;18.10;21.40;;;;;;2264028;61;20360;-67
2022/12/12 06:32:55;0.00;0.00;0.62;0.00;0.00;0.62;7.43;6.40;;;18.10;21.40;;;;;;2264459;61;20399;-69
2022/12/12 06:35:40;0.00;0.00;0.62;0.00;0.00;0.62;6.70;6.00;;;18.10;21.40;;;;;;2259999;61;20380;-67
2022/12/12 06:38:25;0.00;0.00;0.62;0.00;0.00;0.62;7.07;6.37;;;18.10;22.00;;;;;;2264218;61;20851;-66
2022/12/12 06:41:12;0.00;0.00;0.62;0.00;0.00;0.62;6.33;5.70;;;18.10;21.50;;;;;;2264679;61;20363;-68
2022/12/12 06:43:59;0.00;0.00;0.62;0.00;0.00;0.62;6.83;5.43;;;18.10;21.50;;;;;;2263070;61;20356;-69
2022/12/12 06:46:43;0.00;0.00;0.62;0.00;0.00;0.62;5.97;5.33;;;18.10;21.50;;;;;;2264471;61;20418;-66
2022/12/12 06:49:28;0.00;0.00;0.62;0.00;0.00;0.62;6.10;5.50;;;18.10;21.50;;;;;;2264389;61;20359;-69
2022/12/12 06:52:12;0.00;0.00;0.62;0.00;0.00;0.62;5.10;4.60;;;18.10;21.50;;;;;;2263149;61;20446;-67
2022/12/12 06:54:57;0.00;0.00;0.62;0.00;0.00;0.62;5.63;5.03;;;18.10;21.60;;;;;;2264476;61;20896;-67
2022/12/12 06:57:41;0.00;0.00;0.62;0.00;0.00;0.62;5.50;5.00;;;18.10;21.60;;;;;;2263014;61;20380;-68
2022/12/12 07:00:27;0.00;0.00;0.62;0.00;0.00;0.62;6.70;5.97;;;18.10;21.60;;;;;;2264431;61;20384;-67
2022/12/12 07:03:12;0.00;0.00;0.62;0.00;0.00;0.62;6.03;5.40;;;18.10;21.60;;;;;;2264615;61;20407;-67
2022/12/12 07:05:57;0.00;0.00;0.62;0.00;0.00;0.62;5.73;5.13;;;18.10;21.70;;;;;;2263120;61;20360;-68
2022/12/12 07:08:42;0.00;0.00;0.62;0.00;0.00;0.62;6.07;5.23;;;18.10;21.70;;;;;;2264518;61;20380;-68
2022/12/12 07:11:27;0.00;0.00;0.62;0.00;0.00;0.62;6.20;4.80;;;18.10;21.70;;;;;;2264229;61;20772;-67
2022/12/12 07:14:11;0.00;0.00;0.62;0.00;0.00;0.62;5.27;4.87;;;18.20;21.80;;;;;;2263287;61;20355;-65
2022/12/12 07:16:58;0.00;0.00;0.62;0.00;0.00;0.62;5.63;5.07;;;18.10;21.70;;;;;;2264182;61;20411;-65
2022/12/12 07:19:42;0.00;0.00;0.62;0.00;0.00;0.62;5.80;4.83;;;18.10;21.80;;;;;;2263087;61;20833;-65
2022/12/12 07:22:27;0.00;0.00;0.62;0.00;0.00;0.62;5.60;4.93;;;18.20;21.80;;;;;;2264246;61;20406;-66
2022/12/12 07:25:12;0.00;0.00;0.62;0.00;0.00;0.62;6.90;5.53;;;18.20;21.80;;;;;;2264395;61;20390;-67
2022/12/12 07:27:57;0.00;0.00;0.62;0.00;0.00;0.62;4.97;4.40;;;18.20;21.80;;;;;;2263160;61;20950;-68
2022/12/12 07:30:45;0.00;0.00;0.62;0.00;0.00;0.62;5.83;5.23;;;18.20;21.90;;;;;;2264450;61;20360;-64
2022/12/12 07:33:31;0.00;0.00;0.62;0.00;0.00;0.62;5.80;4.70;;;18.20;22.00;;;;;;2264250;61;20464;-63
2022/12/12 07:36:16;0.00;0.00;0.62;0.00;0.00;0.62;5.67;4.50;;;18.20;22.00;;;;;;2263061;61;20397;-63
2022/12/12 07:39:01;0.00;0.00;0.62;0.00;0.00;0.62;5.30;4.37;;;18.20;22.00;;;;;;2264401;61;20415;-63
2022/12/12 07:41:46;0.00;0.00;0.62;0.00;0.00;0.62;6.80;5.00;;;18.20;22.00;;;;;;2263629;61;20893;-66
2022/12/12 07:44:30;0.00;0.00;0.62;0.00;0.00;0.62;5.43;4.70;;;18.20;22.00;;;;;;2261199;61;20441;-62
2022/12/12 07:47:15;0.00;0.00;0.62;0.00;0.00;0.62;5.20;4.07;;;18.20;22.00;;;;;;2264287;61;20407;-61
2022/12/12 07:50:01;0.00;0.00;0.62;0.00;0.00;0.62;4.90;4.40;;;18.20;22.00;;;;;;2262951;61;20344;-62
2022/12/12 07:52:45;0.00;0.00;0.62;0.00;0.00;0.62;5.83;4.40;;;18.20;21.90;;;;;;2264261;61;20495;-65
2022/12/12 07:55:30;0.00;0.00;0.62;0.00;0.00;0.62;4.87;4.37;;;18.30;22.00;;;;;;2264270;61;20368;-63
2022/12/12 07:58:15;0.00;0.00;0.62;0.00;0.00;0.62;4.30;3.90;;;18.30;22.00;;;;;;2263150;61;20767;-63
2022/12/12 08:00:59;0.00;0.00;0.62;0.00;0.00;0.62;4.63;4.07;;;18.30;22.00;;;;;;2264284;61;20457;-62
2022/12/12 08:03:45;0.00;0.00;0.62;0.00;0.00;0.62;4.50;3.87;;;18.30;22.00;;;;;;2264353;61;20487;-63
2022/12/12 08:06:32;0.00;0.00;0.62;0.00;0.00;0.62;4.17;3.77;;;18.30;21.90;;;;;;2261115;61;20436;-60
2022/12/12 08:09:16;0.00;0.00;0.62;0.00;0.00;0.62;4.27;3.53;;;18.40;22.00;;;;;;2264463;61;20410;-61
2022/12/12 08:12:01;0.00;0.00;0.62;0.00;0.00;0.62;4.23;3.83;;;18.40;22.00;;;;;;2263082;61;20450;-62
2022/12/12 08:14:46;0.00;0.00;0.62;0.00;0.00;0.62;4.07;3.60;;;18.40;22.00;;;;;;2264493;61;20360;-62
2022/12/12 08:17:30;0.00;0.00;0.62;0.00;0.00;0.62;4.87;3.87;;;18.40;21.90;;;;;;2264378;61;20430;-62
2022/12/12 08:20:16;0.00;0.00;0.62;0.00;0.00;0.62;5.67;4.37;;;18.40;21.90;;;;;;2262866;61;20424;-62
2022/12/12 08:23:02;0.00;0.00;0.62;0.00;0.00;0.62;5.30;3.90;;;18.40;22.00;;;;;;2261150;61;20482;-61
2022/12/12 08:25:47;0.00;0.00;0.62;0.00;0.00;0.62;3.67;3.37;;;18.50;22.10;;;;;;2264090;61;20414;-63
2022/12/12 08:28:32;0.00;0.00;0.62;0.00;0.00;0.62;4.20;3.80;;;18.40;22.00;;;;;;2263268;61;20424;-63
2022/12/12 08:31:18;0.00;0.00;0.62;0.00;0.00;0.62;4.50;3.60;;;18.50;22.10;;;;;;2264979;61;20498;-71
2022/12/12 08:34:02;0.00;0.00;0.62;0.00;0.00;0.62;4.97;4.30;;;18.50;22.10;;;;;;2263613;61;20414;-63
2022/12/12 08:36:48;0.00;0.00;0.62;0.00;0.00;0.62;4.60;4.10;;;18.50;22.20;;;;;;2264927;61;20506;-63
2022/12/12 08:39:35;0.00;0.00;0.62;0.00;0.00;0.62;4.50;3.70;;;18.50;22.20;;;;;;2264988;61;20942;-63
2022/12/12 08:42:20;0.00;0.00;0.62;0.00;0.00;0.62;5.70;4.27;;;18.60;22.30;;;;;;2264364;61;20913;-63
2022/12/12 08:45:06;0.00;0.00;0.62;0.00;0.00;0.62;4.43;3.20;;;18.60;22.30;;;;;;2264940;61;20411;-62
2022/12/12 08:47:51;0.00;0.00;0.62;0.00;0.00;0.62;3.80;3.20;;;18.60;22.30;;;;;;2264833;61;20441;-62
2022/12/12 08:50:38;0.00;0.00;0.62;0.00;0.00;0.62;3.20;2.87;;;18.60;22.30;;;;;;2264078;61;20356;-63
2022/12/12 08:53:23;0.00;0.00;0.62;0.00;0.00;0.62;4.50;3.43;;;18.70;22.40;;;;;;2264858;61;20411;-66
2022/12/12 08:56:09;0.00;0.00;0.62;0.00;0.00;0.62;3.83;3.43;;;18.70;22.30;;;;;;2263687;61;20449;-64
2022/12/12 08:58:53;0.00;0.00;0.62;0.00;0.00;0.62;4.70;3.70;;;18.70;22.30;;;;;;2265232;61;20545;-63
2022/12/12 09:01:39;0.00;0.00;0.62;0.00;0.00;0.62;4.70;3.33;;;18.80;22.30;;;;;;2264729;61;20356;-62
2022/12/12 09:04:24;0.00;0.00;0.62;0.00;0.00;0.62;3.50;2.87;;;18.80;22.30;;;;;;2264013;61;20826;-62
2022/12/12 09:07:08;0.00;0.00;0.62;0.00;0.00;0.62;3.90;3.00;;;18.80;22.30;;;;;;2264381;61;20789;-61
2022/12/12 09:09:53;0.00;0.00;0.62;0.00;0.00;0.62;3.63;3.10;;;18.80;22.30;;;;;;2264831;61;20762;-62
2022/12/12 09:12:39;0.00;0.00;0.62;0.00;0.00;0.62;3.47;3.17;;;18.90;22.30;;;;;;2263579;61;20376;-63
2022/12/12 09:15:23;0.00;0.00;0.62;0.00;0.00;0.62;3.30;2.97;;;18.90;22.30;;;;;;2264789;61;20422;-61
2022/12/12 09:18:08;0.00;0.00;0.62;0.00;0.00;0.62;4.73;3.07;;;18.90;22.80;;;;;;2263429;61;21108;-62
2022/12/12 09:20:55;0.00;0.00;0.62;0.00;0.00;0.62;3.80;3.10;;;18.90;22.20;;;;;;2264730;61;20850;-62
2022/12/12 09:23:39;0.00;0.00;0.62;0.00;0.00;0.62;3.90;3.47;;;19.00;22.30;;;;;;2264654;61;20927;-62
2022/12/12 09:26:24;0.00;0.00;0.62;0.00;0.00;0.62;3.40;3.10;;;19.00;22.30;;;;;;2263490;61;20882;-62
2022/12/12 09:29:11;0.00;0.00;0.62;0.00;0.00;0.62;3.80;2.87;;;19.00;22.20;;;;;;2264583;61;20891;-63
2022/12/12 09:31:57;0.00;0.00;0.62;0.00;0.00;0.62;3.40;2.83;;;19.10;22.30;;;;;;2264770;61;20433;-63
2022/12/12 09:34:42;0.00;0.00;0.62;0.00;0.00;0.62;3.50;2.87;;;19.10;22.80;;;;;;2263393;61;20410;-62
2022/12/12 09:37:27;0.00;0.00;0.62;0.00;0.00;0.62;4.47;3.03;;;19.10;22.20;;;;;;2264508;61;20511;-62
2022/12/12 09:40:17;0.00;0.00;0.62;0.00;0.00;0.62;4.03;3.27;;;19.10;22.20;;;;;;2263786;61;20380;-63
2022/12/12 09:43:03;0.00;0.00;0.62;0.00;0.00;0.62;3.77;2.80;;;19.20;22.30;;;;;;2264965;61;20395;-62
2022/12/12 09:45:49;0.00;0.00;0.62;0.00;0.00;0.62;3.73;2.67;;;19.20;22.30;;;;;;2264595;61;20970;-62
2022/12/12 09:48:42;0.00;0.00;0.62;0.00;0.00;0.62;2.90;2.57;;;19.20;22.20;;;;;;2260346;61;20786;-62
2022/12/12 09:51:27;0.00;0.00;0.62;0.00;0.00;0.62;3.17;2.60;;;19.20;22.20;;;;;;2264688;61;20360;-62
2022/12/12 09:54:17;0.00;0.00;0.62;0.00;0.00;0.62;5.10;3.47;;;19.30;22.80;;;;;;2264745;61;21133;-62
2022/12/12 09:57:20;0.00;0.00;0.62;0.00;0.00;0.62;3.10;2.60;;;19.30;22.30;;;;;;2263337;61;20922;-62
2022/12/12 10:00:09;0.00;0.00;0.62;0.00;0.00;0.62;3.13;2.50;;;19.30;22.20;;;;;;2264488;61;20438;-62
2022/12/12 10:03:14;0.00;0.00;0.62;0.00;0.00;0.62;3.30;2.73;;;19.30;22.20;;;;;;2263408;61;20476;-62
2022/12/12 10:06:05;0.00;0.00;0.62;0.00;0.00;0.62;2.97;2.60;;;19.40;22.30;;;;;;2264330;61;20383;-62
2022/12/12 10:09:06;0.00;0.00;0.62;0.00;0.00;0.62;4.20;2.80;;;19.40;22.30;;;;;;2264483;61;20927;-62
2022/12/12 10:11:55;0.00;0.00;0.62;0.00;0.00;0.62;3.50;2.77;;;19.40;22.30;;;;;;2263469;61;20387;-63
2022/12/12 10:14:43;0.00;0.00;0.62;0.00;0.00;0.62;3.33;2.80;;;19.50;22.30;;;;;;2264482;61;20770;-62
2022/12/12 10:17:33;0.00;0.00;0.62;0.00;0.00;0.62;4.00;2.90;;;19.50;22.30;;;;;;2263349;61;20384;-62
2022/12/12 10:20:22;0.00;0.00;0.62;0.00;0.00;0.62;3.27;2.43;;;19.50;22.30;;;;;;2261269;61;20480;-62
2022/12/12 10:23:20;0.00;0.00;0.62;0.00;0.00;0.62;3.97;2.80;;;19.50;22.30;;;;;;2264636;61;20399;-62
2022/12/12 10:26:13;0.00;0.00;0.62;0.00;0.00;0.62;2.87;2.47;;;19.60;22.30;;;;;;2263050;61;20445;-62
2022/12/12 10:29:08;0.00;0.00;0.62;0.00;0.00;0.62;3.27;2.40;;;19.60;22.30;;;;;;2264658;61;20874;-62
2022/12/12 10:32:03;0.00;0.00;0.62;0.00;0.00;0.62;3.03;2.73;;;19.70;22.30;;;;;;2264006;61;20418;-62
2022/12/12 10:35:03;0.00;0.00;0.62;0.00;0.00;0.62;3.00;2.63;;;19.70;22.30;;;;;;2264474;61;20419;-62
2022/12/12 10:38:04;0.00;0.00;0.62;0.00;0.00;0.62;2.23;1.97;;;19.70;22.30;;;;;;2264000;61;20538;-62
2022/12/12 10:40:58;0.00;0.00;0.62;0.00;0.00;0.62;2.97;2.03;;;19.70;22.40;;;;;;2262998;61;20480;-63
2022/12/12 10:43:57;0.00;0.00;0.62;0.00;0.00;0.62;3.17;2.23;;;19.70;22.40;;;;;;2264534;61;20360;-61
2022/12/12 10:46:46;0.00;0.00;0.62;0.00;0.00;0.62;2.47;2.13;;;19.70;22.40;;;;;;2263942;61;20355;-62
2022/12/12 10:49:32;0.00;0.00;0.62;0.00;0.00;0.62;3.70;2.40;;;19.70;22.40;;;;;;2264302;61;20356;-62
2022/12/12 10:52:20;0.00;0.00;0.62;0.00;0.00;0.62;2.73;2.37;;;19.70;22.40;;;;;;2261096;61;20364;-62
2022/12/12 10:55:19;0.00;0.00;0.62;0.00;0.00;0.62;3.30;2.80;;;19.70;22.40;;;;;;2262989;61;20393;-63
2022/12/12 10:58:05;0.00;0.00;0.62;0.00;0.00;0.62;2.80;2.37;;;19.70;22.30;;;;;;2264566;61;20395;-62
2022/12/12 11:00:58;0.00;0.00;0.62;0.00;0.00;0.62;3.20;2.40;;;19.80;22.40;;;;;;2264301;61;20485;-62
2022/12/12 11:03:46;0.00;0.00;0.62;0.00;0.00;0.62;2.70;2.30;;;19.80;22.40;;;;;;2263506;61;20369;-62
2022/12/12 11:06:37;0.00;0.00;0.62;0.00;0.00;0.62;3.00;2.50;;;19.80;22.80;;;;;;2264377;61;20359;-63
2022/12/12 11:09:24;0.00;0.00;0.62;0.00;0.00;0.62;3.50;2.43;;;19.90;22.40;;;;;;2263101;61;20361;-62
2022/12/12 11:12:15;0.00;0.00;0.62;0.00;0.00;0.62;3.43;2.90;;;19.90;22.30;;;;;;2264356;61;20426;-63
2022/12/12 11:15:12;0.00;0.00;0.62;0.00;0.00;0.62;2.47;1.90;;;19.90;22.30;;;;;;2264232;61;20375;-63